Lena — V2FR — position and weather

sailwx.info

Track history (hours):
 
Tides and Currents Weather Stations Pressure Air Temp Water Temp Dewpoint Dewpoint Depression Visibility Wind Speed Wind Dir Waves Ship Positions

Lena

Last reported at 2015-Jul-04 07:32 UTC. Time now 2015-Jul-04 08:28 UTC.
Position N 57°41' E 010°36'.

Length 152 m; draft 6.2 m.

Type: Ship. MMSI: 304080808.

Date/timePositionNaut miles runAvg speedWind from/ knotsBaromVisibWave heightAir tempDewpointWater temp
2015-Jul-04 07:32N 57°41' E 010°36'0 0.0
2015-Jul-04 06:33N 57°41' E 010°36'0 0.0
2015-Jul-04 05:33N 57°41' E 010°36'0 0.0
2015-Jul-04 04:33N 57°41' E 010°36'0 0.0
2015-Jul-04 03:33N 57°41' E 010°36'0 0.0
2015-Jul-04 02:33N 57°41' E 010°36'8 7.6
2015-Jul-04 01:33N 57°37' E 010°48'1515.4
2015-Jul-04 00:34N 57°32' E 011°15'1515.0
2015-Jul-03 23:33N 57°20' E 011°32'1616.0
2015-Jul-03 22:33N 57°04' E 011°41'1515.6
2015-Jul-03 21:33N 56°50' E 011°51'1515.3
2015-Jul-03 20:33N 56°35' E 011°58'1515.5
2015-Jul-03 19:33N 56°20' E 012°05'1514.7
2015-Jul-03 18:33N 56°10' E 012°25'1616.3
2015-Jul-03 17:33N 55°58' E 012°43'1615.6
2015-Jul-03 16:34N 55°42' E 012°41'1515.2
2015-Jul-03 15:33N 55°27' E 012°42'1312.6
2015-Jul-03 14:33N 55°16' E 012°53'1515.5
2015-Jul-03 13:34N 55°15' E 013°21'1515.5
2015-Jul-03 12:33N 55°15' E 013°48'1615.6
2015-Jul-03 11:34N 55°14' E 014°15'1515.1
2015-Jul-03 10:34N 55°24' E 014°34'1515.2
2015-Jul-03 09:33N 55°33' E 014°55'1515.4
2015-Jul-03 08:33N 55°41' E 015°19'1515.3
2015-Jul-03 07:33N 55°49' E 015°42'1814.9
2015-Jul-03 06:21N 55°57' E 016°10'2614.5
2015-Jul-03 04:33N 56°14' E 016°47'1515.0
2015-Jul-03 03:33N 56°28' E 016°57'1514.9
2015-Jul-03 02:32N 56°42' E 017°07'1515.4
2015-Jul-03 01:34N 56°56' E 017°17'1515.4
2015-Jul-03 00:34N 57°10' E 017°27'1515.2
2015-Jul-02 23:33N 57°25' E 017°37'1514.8
2015-Jul-02 22:33N 57°39' E 017°40'1515.0
2015-Jul-02 21:34N 57°54' E 017°37'  
Track history (hours):
 
Tides and Currents Weather Stations Pressure Air Temp Water Temp Dewpoint Dewpoint Depression Visibility Wind Speed Wind Dir Waves Ship Positions

Lena

Last reported at 2015-Jul-04 07:32 UTC. Time now 2015-Jul-04 08:28 UTC.
Position N 57°41' E 010°36'.

Length 152 m; draft 6.2 m.

Type: Ship. MMSI: 304080808.

Date/timePositionNaut miles runAvg speedWind from/ knotsBaromVisibWave heightAir tempDewpointWater temp
2015-Jul-04 07:32N 57°41' E 010°36'0 0.0
2015-Jul-04 06:33N 57°41' E 010°36'0 0.0
2015-Jul-04 05:33N 57°41' E 010°36'0 0.0
2015-Jul-04 04:33N 57°41' E 010°36'0 0.0
2015-Jul-04 03:33N 57°41' E 010°36'0 0.0
2015-Jul-04 02:33N 57°41' E 010°36'8 7.6
2015-Jul-04 01:33N 57°37' E 010°48'1515.4
2015-Jul-04 00:34N 57°32' E 011°15'1515.0
2015-Jul-03 23:33N 57°20' E 011°32'1616.0
2015-Jul-03 22:33N 57°04' E 011°41'1515.6
2015-Jul-03 21:33N 56°50' E 011°51'1515.3
2015-Jul-03 20:33N 56°35' E 011°58'1515.5
2015-Jul-03 19:33N 56°20' E 012°05'1514.7
2015-Jul-03 18:33N 56°10' E 012°25'1616.3
2015-Jul-03 17:33N 55°58' E 012°43'1615.6
2015-Jul-03 16:34N 55°42' E 012°41'1515.2
2015-Jul-03 15:33N 55°27' E 012°42'1312.6
2015-Jul-03 14:33N 55°16' E 012°53'1515.5
2015-Jul-03 13:34N 55°15' E 013°21'1515.5
2015-Jul-03 12:33N 55°15' E 013°48'1615.6
2015-Jul-03 11:34N 55°14' E 014°15'1515.1
2015-Jul-03 10:34N 55°24' E 014°34'1515.2
2015-Jul-03 09:33N 55°33' E 014°55'1515.4
2015-Jul-03 08:33N 55°41' E 015°19'1515.3
2015-Jul-03 07:33N 55°49' E 015°42'1814.9
2015-Jul-03 06:21N 55°57' E 016°10'2614.5
2015-Jul-03 04:33N 56°14' E 016°47'1515.0
2015-Jul-03 03:33N 56°28' E 016°57'1514.9
2015-Jul-03 02:32N 56°42' E 017°07'1515.4
2015-Jul-03 01:34N 56°56' E 017°17'1515.4
2015-Jul-03 00:34N 57°10' E 017°27'1515.2
2015-Jul-02 23:33N 57°25' E 017°37'1514.8
2015-Jul-02 22:33N 57°39' E 017°40'1515.0
2015-Jul-02 21:34N 57°54' E 017°37'  

Dump ship's entire track history